sensor_id;sensor_type;location;lat;lon;timestamp;temperature;humidity
1453;DHT22;720;47.738;7.998;2024-03-23T00:54:22;8.80;99.90
1453;DHT22;720;47.738;7.998;2024-03-23T00:56:47;8.80;99.90
1453;DHT22;720;47.738;7.998;2024-03-23T00:59:13;8.80;99.90
1453;DHT22;720;47.738;7.998;2024-03-23T01:01:39;8.70;99.90
1453;DHT22;720;47.738;7.998;2024-03-23T01:04:05;8.80;99.90
1453;DHT22;720;47.738;7.998;2024-03-23T01:06:30;8.80;99.90
1453;DHT22;720;47.738;7.998;2024-03-23T01:08:56;8.90;99.90
1453;DHT22;720;47.738;7.998;2024-03-23T01:11:21;9.00;99.90
1453;DHT22;720;47.738;7.998;2024-03-23T01:13:47;9.00;99.90
1453;DHT22;720;47.738;7.998;2024-03-23T01:16:13;9.10;99.90
1453;DHT22;720;47.738;7.998;2024-03-23T01:18:38;9.10;99.90
1453;DHT22;720;47.738;7.998;2024-03-23T01:21:04;9.20;99.90
1453;DHT22;720;47.738;7.998;2024-03-23T01:23:30;9.30;99.90
1453;DHT22;720;47.738;7.998;2024-03-23T01:25:55;9.30;99.90
1453;DHT22;720;47.738;7.998;2024-03-23T01:28:21;9.40;99.90
1453;DHT22;720;47.738;7.998;2024-03-23T01:30:48;9.50;99.90
1453;DHT22;720;47.738;7.998;2024-03-23T01:33:14;9.60;99.90
1453;DHT22;720;47.738;7.998;2024-03-23T01:35:39;9.70;99.90
1453;DHT22;720;47.738;7.998;2024-03-23T01:38:05;9.80;99.90
1453;DHT22;720;47.738;7.998;2024-03-23T01:40:31;9.80;99.90
1453;DHT22;720;47.738;7.998;2024-03-23T01:42:58;10.00;99.90
1453;DHT22;720;47.738;7.998;2024-03-23T01:45:24;10.10;99.90
1453;DHT22;720;47.738;7.998;2024-03-23T01:47:51;10.30;99.80
1453;DHT22;720;47.738;7.998;2024-03-23T01:50:17;10.40;99.70
1453;DHT22;720;47.738;7.998;2024-03-23T01:52:43;10.40;99.70
1453;DHT22;720;47.738;7.998;2024-03-23T01:55:09;10.50;99.30
1453;DHT22;720;47.738;7.998;2024-03-23T01:57:35;10.70;98.90
1453;DHT22;720;47.738;7.998;2024-03-23T02:00:01;10.80;98.30
1453;DHT22;720;47.738;7.998;2024-03-23T02:02:26;11.00;98.30
1453;DHT22;720;47.738;7.998;2024-03-23T02:04:52;11.10;97.90
1453;DHT22;720;47.738;7.998;2024-03-23T02:07:17;11.20;98.60
1453;DHT22;720;47.738;7.998;2024-03-23T02:09:44;11.30;98.10
1453;DHT22;720;47.738;7.998;2024-03-23T02:12:11;11.40;97.80
1453;DHT22;720;47.738;7.998;2024-03-23T02:14:37;11.50;97.70
1453;DHT22;720;47.738;7.998;2024-03-23T02:17:03;11.60;97.80
1453;DHT22;720;47.738;7.998;2024-03-23T02:19:29;11.70;97.80
1453;DHT22;720;47.738;7.998;2024-03-23T02:21:56;11.70;97.30
1453;DHT22;720;47.738;7.998;2024-03-23T02:24:22;11.80;97.40
1453;DHT22;720;47.738;7.998;2024-03-23T02:26:48;12.00;97.40
1453;DHT22;720;47.738;7.998;2024-03-23T02:29:14;12.10;97.00
1453;DHT22;720;47.738;7.998;2024-03-23T02:31:40;12.20;96.50
1453;DHT22;720;47.738;7.998;2024-03-23T02:34:06;12.30;96.40
1453;DHT22;720;47.738;7.998;2024-03-23T02:36:31;12.30;96.50
1453;DHT22;720;47.738;7.998;2024-03-23T02:38:57;12.40;96.50
1453;DHT22;720;47.738;7.998;2024-03-23T02:41:23;12.40;99.90
1453;DHT22;720;47.738;7.998;2024-03-23T02:43:52;12.30;96.20
1453;DHT22;720;47.738;7.998;2024-03-23T02:46:19;12.40;96.20
1453;DHT22;720;47.738;7.998;2024-03-23T02:48:48;12.40;96.10
1453;DHT22;720;47.738;7.998;2024-03-23T02:51:13;12.40;95.80
1453;DHT22;720;47.738;7.998;2024-03-23T02:53:39;12.40;95.70
1453;DHT22;720;47.738;7.998;2024-03-23T02:56:05;12.40;95.60
1453;DHT22;720;47.738;7.998;2024-03-23T02:58:32;12.30;95.50
1453;DHT22;720;47.738;7.998;2024-03-23T03:00:57;12.30;95.80
1453;DHT22;720;47.738;7.998;2024-03-23T03:03:24;12.30;96.00
1453;DHT22;720;47.738;7.998;2024-03-23T03:05:55;12.10;95.80
1453;DHT22;720;47.738;7.998;2024-03-23T03:08:21;12.00;96.10
1453;DHT22;720;47.738;7.998;2024-03-23T03:10:47;11.90;96.30
1453;DHT22;720;47.738;7.998;2024-03-23T03:13:12;12.00;96.30
1453;DHT22;720;47.738;7.998;2024-03-23T03:15:42;11.90;96.30
1453;DHT22;720;47.738;7.998;2024-03-23T03:18:08;11.80;96.60
1453;DHT22;720;47.738;7.998;2024-03-23T03:20:33;11.80;96.60
1453;DHT22;720;47.738;7.998;2024-03-23T03:23:00;11.80;96.60
1453;DHT22;720;47.738;7.998;2024-03-23T03:25:25;11.70;96.60
1453;DHT22;720;47.738;7.998;2024-03-23T03:27:51;11.80;96.70
1453;DHT22;720;47.738;7.998;2024-03-23T03:30:17;11.80;96.70
1453;DHT22;720;47.738;7.998;2024-03-23T03:32:42;11.80;96.60
1453;DHT22;720;47.738;7.998;2024-03-23T03:35:08;11.80;96.70
1453;DHT22;720;47.738;7.998;2024-03-23T03:37:34;11.80;96.70
1453;DHT22;720;47.738;7.998;2024-03-23T03:39:59;11.70;96.60
1453;DHT22;720;47.738;7.998;2024-03-23T03:42:25;11.70;96.90
1453;DHT22;720;47.738;7.998;2024-03-23T03:44:51;11.70;97.00
1453;DHT22;720;47.738;7.998;2024-03-23T03:47:17;11.60;96.90
1453;DHT22;720;47.738;7.998;2024-03-23T03:49:43;11.50;97.20
1453;DHT22;720;47.738;7.998;2024-03-23T03:52:09;11.40;97.40
1453;DHT22;720;47.738;7.998;2024-03-23T03:54:34;11.30;97.50
1453;DHT22;720;47.738;7.998;2024-03-23T03:57:00;11.30;97.70
1453;DHT22;720;47.738;7.998;2024-03-23T03:59:26;11.20;97.90
1453;DHT22;720;47.738;7.998;2024-03-23T04:01:51;11.20;97.90
1453;DHT22;720;47.738;7.998;2024-03-23T04:04:17;11.20;98.10
1453;DHT22;720;47.738;7.998;2024-03-23T04:06:43;11.30;98.30
1453;DHT22;720;47.738;7.998;2024-03-23T04:09:09;11.30;98.20
1453;DHT22;720;47.738;7.998;2024-03-23T04:11:35;11.30;98.40
1453;DHT22;720;47.738;7.998;2024-03-23T04:14:01;11.40;98.30
1453;DHT22;720;47.738;7.998;2024-03-23T04:16:35;11.40;99.10
1453;DHT22;720;47.738;7.998;2024-03-23T04:19:01;11.40;99.90
1453;DHT22;720;47.738;7.998;2024-03-23T04:21:26;11.50;99.90
1453;DHT22;720;47.738;7.998;2024-03-23T04:23:52;11.40;99.90
1453;DHT22;720;47.738;7.998;2024-03-23T04:26:18;11.40;99.90
1453;DHT22;720;47.738;7.998;2024-03-23T04:28:44;11.40;99.90
1453;DHT22;720;47.738;7.998;2024-03-23T04:31:09;11.20;99.90
1453;DHT22;720;47.738;7.998;2024-03-23T04:33:35;11.20;99.90
1453;DHT22;720;47.738;7.998;2024-03-23T04:36:01;10.80;99.90
1453;DHT22;720;47.738;7.998;2024-03-23T04:38:27;10.80;99.90
1453;DHT22;720;47.738;7.998;2024-03-23T04:40:56;10.60;99.90
1453;DHT22;720;47.738;7.998;2024-03-23T04:43:22;10.50;99.90
1453;DHT22;720;47.738;7.998;2024-03-23T04:45:48;10.60;99.90
1453;DHT22;720;47.738;7.998;2024-03-23T04:48:14;10.50;99.90
1453;DHT22;720;47.738;7.998;2024-03-23T04:50:39;10.50;99.90
1453;DHT22;720;47.738;7.998;2024-03-23T04:53:06;10.60;99.90
1453;DHT22;720;47.738;7.998;2024-03-23T04:55:32;10.40;99.90
1453;DHT22;720;47.738;7.998;2024-03-23T04:57:58;10.30;99.90
1453;DHT22;720;47.738;7.998;2024-03-23T05:00:23;10.40;99.90
1453;DHT22;720;47.738;7.998;2024-03-23T05:02:50;10.40;99.90
1453;DHT22;720;47.738;7.998;2024-03-23T05:05:16;10.40;99.90
1453;DHT22;720;47.738;7.998;2024-03-23T05:07:41;10.40;99.90
1453;DHT22;720;47.738;7.998;2024-03-23T05:10:09;10.50;99.90
1453;DHT22;720;47.738;7.998;2024-03-23T05:12:39;10.50;99.90
1453;DHT22;720;47.738;7.998;2024-03-23T05:15:05;10.60;99.90
1453;DHT22;720;47.738;7.998;2024-03-23T05:17:32;10.40;99.90
1453;DHT22;720;47.738;7.998;2024-03-23T05:19:58;10.10;99.90
1453;DHT22;720;47.738;7.998;2024-03-23T05:22:24;10.20;99.90
1453;DHT22;720;47.738;7.998;2024-03-23T05:24:50;10.20;99.90
1453;DHT22;720;47.738;7.998;2024-03-23T05:27:15;10.20;99.90
1453;DHT22;720;47.738;7.998;2024-03-23T05:29:41;10.00;99.90
1453;DHT22;720;47.738;7.998;2024-03-23T05:32:07;10.00;99.90
1453;DHT22;720;47.738;7.998;2024-03-23T05:34:33;9.80;99.90
1453;DHT22;720;47.738;7.998;2024-03-23T05:36:59;9.80;99.90
1453;DHT22;720;47.738;7.998;2024-03-23T05:39:24;9.90;99.90
1453;DHT22;720;47.738;7.998;2024-03-23T05:41:51;9.90;99.90
1453;DHT22;720;47.738;7.998;2024-03-23T05:44:17;9.80;99.90
1453;DHT22;720;47.738;7.998;2024-03-23T05:46:43;9.70;99.90
1453;DHT22;720;47.738;7.998;2024-03-23T05:49:14;9.70;99.90
1453;DHT22;720;47.738;7.998;2024-03-23T05:51:39;9.80;99.90
1453;DHT22;720;47.738;7.998;2024-03-23T05:54:05;9.90;99.90
1453;DHT22;720;47.738;7.998;2024-03-23T05:56:30;9.80;99.90
1453;DHT22;720;47.738;7.998;2024-03-23T05:58:56;9.70;99.90
1453;DHT22;720;47.738;7.998;2024-03-23T06:01:22;9.60;99.90
1453;DHT22;720;47.738;7.998;2024-03-23T06:03:47;9.60;99.90
1453;DHT22;720;47.738;7.998;2024-03-23T06:06:13;9.40;99.90
1453;DHT22;720;47.738;7.998;2024-03-23T06:08:38;9.60;99.90
1453;DHT22;720;47.738;7.998;2024-03-23T06:11:04;9.60;99.90
1453;DHT22;720;47.738;7.998;2024-03-23T06:13:33;9.40;99.90
1453;DHT22;720;47.738;7.998;2024-03-23T06:16:01;9.40;99.90
1453;DHT22;720;47.738;7.998;2024-03-23T06:18:27;9.50;99.90
1453;DHT22;720;47.738;7.998;2024-03-23T06:20:53;9.50;99.90
1453;DHT22;720;47.738;7.998;2024-03-23T06:23:20;9.40;99.90
1453;DHT22;720;47.738;7.998;2024-03-23T06:25:46;9.40;99.90
1453;DHT22;720;47.738;7.998;2024-03-23T06:28:13;9.30;99.90
1453;DHT22;720;47.738;7.998;2024-03-23T06:30:39;9.20;99.90
1453;DHT22;720;47.738;7.998;2024-03-23T06:33:05;9.30;99.90
1453;DHT22;720;47.738;7.998;2024-03-23T06:35:34;9.30;99.90
1453;DHT22;720;47.738;7.998;2024-03-23T06:37:59;9.50;99.90
1453;DHT22;720;47.738;7.998;2024-03-23T06:40:25;9.40;99.90
1453;DHT22;720;47.738;7.998;2024-03-23T06:42:50;9.30;99.90
1453;DHT22;720;47.738;7.998;2024-03-23T06:45:17;9.40;99.90
1453;DHT22;720;47.738;7.998;2024-03-23T06:47:48;9.60;99.90
1453;DHT22;720;47.738;7.998;2024-03-23T06:50:14;9.60;99.90
1453;DHT22;720;47.738;7.998;2024-03-23T06:52:41;9.70;99.90
1453;DHT22;720;47.738;7.998;2024-03-23T06:55:07;9.70;99.90
1453;DHT22;720;47.738;7.998;2024-03-23T06:57:34;9.70;99.90
1453;DHT22;720;47.738;7.998;2024-03-23T06:59:59;9.80;99.90
1453;DHT22;720;47.738;7.998;2024-03-23T07:02:25;9.90;99.90
1453;DHT22;720;47.738;7.998;2024-03-23T07:04:50;9.90;99.90
1453;DHT22;720;47.738;7.998;2024-03-23T07:07:16;9.90;99.90
1453;DHT22;720;47.738;7.998;2024-03-23T07:09:41;9.90;99.90
1453;DHT22;720;47.738;7.998;2024-03-23T07:12:07;9.80;99.90
1453;DHT22;720;47.738;7.998;2024-03-23T07:14:33;9.80;99.90
1453;DHT22;720;47.738;7.998;2024-03-23T07:16:59;9.70;99.90
1453;DHT22;720;47.738;7.998;2024-03-23T07:19:24;9.80;99.90
1453;DHT22;720;47.738;7.998;2024-03-23T07:21:50;9.80;99.90
1453;DHT22;720;47.738;7.998;2024-03-23T07:24:16;9.50;99.90
1453;DHT22;720;47.738;7.998;2024-03-23T07:26:41;9.40;99.90
1453;DHT22;720;47.738;7.998;2024-03-23T07:29:07;9.20;99.90
1453;DHT22;720;47.738;7.998;2024-03-23T07:31:32;9.10;99.90
1453;DHT22;720;47.738;7.998;2024-03-23T07:33:58;9.10;99.90
1453;DHT22;720;47.738;7.998;2024-03-23T07:36:24;9.00;99.90
1453;DHT22;720;47.738;7.998;2024-03-23T07:38:49;8.80;99.90
1453;DHT22;720;47.738;7.998;2024-03-23T07:41:19;8.70;99.90
1453;DHT22;720;47.738;7.998;2024-03-23T07:43:46;8.60;99.90
1453;DHT22;720;47.738;7.998;2024-03-23T07:46:12;8.10;99.90
1453;DHT22;720;47.738;7.998;2024-03-23T07:48:38;8.00;99.90
1453;DHT22;720;47.738;7.998;2024-03-23T07:51:15;7.90;99.90
1453;DHT22;720;47.738;7.998;2024-03-23T07:53:43;7.80;99.90
1453;DHT22;720;47.738;7.998;2024-03-23T07:56:10;7.60;99.90
1453;DHT22;720;47.738;7.998;2024-03-23T07:58:36;7.70;99.90
1453;DHT22;720;47.738;7.998;2024-03-23T08:01:20;7.80;99.90
1453;DHT22;720;47.738;7.998;2024-03-23T08:03:45;7.80;99.90
1453;DHT22;720;47.738;7.998;2024-03-23T08:06:19;7.80;99.90
1453;DHT22;720;47.738;7.998;2024-03-23T08:08:47;7.60;99.90
1453;DHT22;720;47.738;7.998;2024-03-23T08:11:13;7.50;99.90
1453;DHT22;720;47.738;7.998;2024-03-23T08:13:41;7.50;99.90
1453;DHT22;720;47.738;7.998;2024-03-23T08:16:07;7.50;99.90
1453;DHT22;720;47.738;7.998;2024-03-23T08:18:34;7.50;99.90
1453;DHT22;720;47.738;7.998;2024-03-23T08:21:01;7.30;99.90
1453;DHT22;720;47.738;7.998;2024-03-23T08:23:29;7.10;99.90
1453;DHT22;720;47.738;7.998;2024-03-23T08:25:58;7.10;99.90
1453;DHT22;720;47.738;7.998;2024-03-23T08:28:25;7.50;99.90
1453;DHT22;720;47.738;7.998;2024-03-23T08:30:51;7.70;99.30
1453;DHT22;720;47.738;7.998;2024-03-23T08:33:17;8.00;98.50
1453;DHT22;720;47.738;7.998;2024-03-23T08:35:43;8.90;97.30
1453;DHT22;720;47.738;7.998;2024-03-23T08:38:17;10.10;93.80
1453;DHT22;720;47.738;7.998;2024-03-23T08:40:43;10.80;93.60
1453;DHT22;720;47.738;7.998;2024-03-23T08:43:09;10.60;91.70
1453;DHT22;720;47.738;7.998;2024-03-23T08:45:34;11.10;90.70
1453;DHT22;720;47.738;7.998;2024-03-23T08:48:00;11.90;89.30
1453;DHT22;720;47.738;7.998;2024-03-23T08:50:25;12.90;90.60
1453;DHT22;720;47.738;7.998;2024-03-23T08:52:51;14.30;81.70
1453;DHT22;720;47.738;7.998;2024-03-23T08:55:17;15.80;77.50
1453;DHT22;720;47.738;7.998;2024-03-23T08:57:43;16.70;71.90
1453;DHT22;720;47.738;7.998;2024-03-23T09:00:10;18.30;68.90
1453;DHT22;720;47.738;7.998;2024-03-23T09:02:37;19.50;66.30
1453;DHT22;720;47.738;7.998;2024-03-23T09:05:03;19.70;55.00
1453;DHT22;720;47.738;7.998;2024-03-23T09:07:31;20.20;60.20
1453;DHT22;720;47.738;7.998;2024-03-23T09:09:57;20.20;56.10
1453;DHT22;720;47.738;7.998;2024-03-23T09:12:24;20.00;54.60
1453;DHT22;720;47.738;7.998;2024-03-23T09:14:50;19.50;55.20
1453;DHT22;720;47.738;7.998;2024-03-23T09:17:16;19.90;53.90
1453;DHT22;720;47.738;7.998;2024-03-23T09:19:41;19.40;53.20
1453;DHT22;720;47.738;7.998;2024-03-23T09:22:07;19.30;53.80
1453;DHT22;720;47.738;7.998;2024-03-23T09:24:33;19.30;51.50
1453;DHT22;720;47.738;7.998;2024-03-23T09:26:59;18.60;50.80
1453;DHT22;720;47.738;7.998;2024-03-23T09:29:24;18.70;52.30
1453;DHT22;720;47.738;7.998;2024-03-23T09:31:50;19.10;49.90
1453;DHT22;720;47.738;7.998;2024-03-23T09:34:15;18.20;50.00
1453;DHT22;720;47.738;7.998;2024-03-23T09:36:41;16.60;51.30
1453;DHT22;720;47.738;7.998;2024-03-23T09:39:07;15.90;51.60
1453;DHT22;720;47.738;7.998;2024-03-23T09:41:35;15.20;55.20
1453;DHT22;720;47.738;7.998;2024-03-23T09:44:01;14.40;56.70
1453;DHT22;720;47.738;7.998;2024-03-23T09:46:27;14.40;58.50
1453;DHT22;720;47.738;7.998;2024-03-23T09:48:55;14.70;57.20
1453;DHT22;720;47.738;7.998;2024-03-23T09:51:21;14.10;56.90
1453;DHT22;720;47.738;7.998;2024-03-23T09:53:49;13.80;57.90
1453;DHT22;720;47.738;7.998;2024-03-23T09:56:15;13.20;57.50
1453;DHT22;720;47.738;7.998;2024-03-23T09:58:42;12.80;60.20
1453;DHT22;720;47.738;7.998;2024-03-23T10:01:09;12.40;61.30
1453;DHT22;720;47.738;7.998;2024-03-23T10:03:46;13.10;62.10
1453;DHT22;720;47.738;7.998;2024-03-23T10:06:12;14.70;61.30
1453;DHT22;720;47.738;7.998;2024-03-23T10:08:38;15.40;58.10
1453;DHT22;720;47.738;7.998;2024-03-23T10:11:15;16.20;57.10
1453;DHT22;720;47.738;7.998;2024-03-23T10:13:44;16.80;55.80
1453;DHT22;720;47.738;7.998;2024-03-23T10:16:11;17.30;54.30
1453;DHT22;720;47.738;7.998;2024-03-23T10:18:38;17.50;53.50
1453;DHT22;720;47.738;7.998;2024-03-23T10:23:34;18.00;53.60
1453;DHT22;720;47.738;7.998;2024-03-23T10:26:19;17.90;50.00
1453;DHT22;720;47.738;7.998;2024-03-23T10:28:59;17.90;49.60
1453;DHT22;720;47.738;7.998;2024-03-23T10:31:36;17.90;48.00
1453;DHT22;720;47.738;7.998;2024-03-23T10:34:03;16.30;50.20
1453;DHT22;720;47.738;7.998;2024-03-23T10:36:29;16.20;49.30
1453;DHT22;720;47.738;7.998;2024-03-23T10:38:56;16.00;49.50
1453;DHT22;720;47.738;7.998;2024-03-23T10:41:26;15.70;51.70
1453;DHT22;720;47.738;7.998;2024-03-23T10:43:53;15.50;51.70
1453;DHT22;720;47.738;7.998;2024-03-23T10:46:21;14.80;52.70
1453;DHT22;720;47.738;7.998;2024-03-23T10:48:46;14.80;51.60
1453;DHT22;720;47.738;7.998;2024-03-23T10:51:12;14.70;51.80
1453;DHT22;720;47.738;7.998;2024-03-23T10:53:40;14.30;52.90
1453;DHT22;720;47.738;7.998;2024-03-23T10:56:07;13.90;53.60
1453;DHT22;720;47.738;7.998;2024-03-23T10:58:41;13.20;53.50
1453;DHT22;720;47.738;7.998;2024-03-23T11:01:11;12.80;53.80
1453;DHT22;720;47.738;7.998;2024-03-23T11:03:39;11.70;55.60
1453;DHT22;720;47.738;7.998;2024-03-23T11:06:06;11.20;59.40
1453;DHT22;720;47.738;7.998;2024-03-23T11:11:20;10.70;61.10
1453;DHT22;720;47.738;7.998;2024-03-23T11:13:51;10.20;63.10
1453;DHT22;720;47.738;7.998;2024-03-23T11:18:44;8.50;73.70
1453;DHT22;720;47.738;7.998;2024-03-23T11:21:10;8.50;74.50
1453;DHT22;720;47.738;7.998;2024-03-23T11:23:36;8.40;77.00
1453;DHT22;720;47.738;7.998;2024-03-23T11:26:02;8.20;78.70
1453;DHT22;720;47.738;7.998;2024-03-23T11:28:32;7.60;78.70
1453;DHT22;720;47.738;7.998;2024-03-23T11:30:57;7.40;80.90
1453;DHT22;720;47.738;7.998;2024-03-23T11:33:23;7.30;82.50
1453;DHT22;720;47.738;7.998;2024-03-23T11:35:49;7.20;85.00
1453;DHT22;720;47.738;7.998;2024-03-23T11:38:18;7.20;87.30
1453;DHT22;720;47.738;7.998;2024-03-23T11:40:48;7.00;90.10
1453;DHT22;720;47.738;7.998;2024-03-23T11:43:19;7.00;90.80
1453;DHT22;720;47.738;7.998;2024-03-23T11:45:50;6.90;91.10
1453;DHT22;720;47.738;7.998;2024-03-23T11:48:22;6.80;91.60
1453;DHT22;720;47.738;7.998;2024-03-23T11:50:50;6.70;92.10
1453;DHT22;720;47.738;7.998;2024-03-23T11:53:17;6.50;92.90
1453;DHT22;720;47.738;7.998;2024-03-23T11:55:53;6.10;93.70
1453;DHT22;720;47.738;7.998;2024-03-23T11:58:21;6.10;95.00
1453;DHT22;720;47.738;7.998;2024-03-23T12:00:56;6.10;95.10
1453;DHT22;720;47.738;7.998;2024-03-23T12:03:23;6.30;95.60
1453;DHT22;720;47.738;7.998;2024-03-23T12:05:54;6.70;94.50
1453;DHT22;720;47.738;7.998;2024-03-23T12:08:34;7.20;93.40
1453;DHT22;720;47.738;7.998;2024-03-23T12:13:33;7.70;92.60
1453;DHT22;720;47.738;7.998;2024-03-23T12:16:17;7.90;92.40
1453;DHT22;720;47.738;7.998;2024-03-23T12:18:44;8.00;92.10
1453;DHT22;720;47.738;7.998;2024-03-23T12:21:10;7.80;92.80
1453;DHT22;720;47.738;7.998;2024-03-23T12:23:39;7.40;93.20
1453;DHT22;720;47.738;7.998;2024-03-23T12:26:05;7.00;94.30
1453;DHT22;720;47.738;7.998;2024-03-23T12:28:32;7.40;93.60
1453;DHT22;720;47.738;7.998;2024-03-23T12:30:57;7.90;93.50
1453;DHT22;720;47.738;7.998;2024-03-23T12:33:23;8.10;92.60
1453;DHT22;720;47.738;7.998;2024-03-23T12:35:50;8.30;93.10
1453;DHT22;720;47.738;7.998;2024-03-23T12:38:16;8.50;93.30
1453;DHT22;720;47.738;7.998;2024-03-23T12:40:46;8.70;90.90
1453;DHT22;720;47.738;7.998;2024-03-23T12:43:13;8.90;91.30
1453;DHT22;720;47.738;7.998;2024-03-23T12:45:38;9.00;90.10
1453;DHT22;720;47.738;7.998;2024-03-23T12:48:04;8.90;90.90
1453;DHT22;720;47.738;7.998;2024-03-23T12:50:30;9.00;91.20
1453;DHT22;720;47.738;7.998;2024-03-23T12:52:55;9.10;90.50
1453;DHT22;720;47.738;7.998;2024-03-23T12:55:21;8.30;97.60
1453;DHT22;720;47.738;7.998;2024-03-23T12:57:47;8.40;91.20
1453;DHT22;720;47.738;7.998;2024-03-23T13:00:13;8.10;92.10
1453;DHT22;720;47.738;7.998;2024-03-23T13:02:41;7.90;92.30
1453;DHT22;720;47.738;7.998;2024-03-23T13:05:07;7.90;94.80
1453;DHT22;720;47.738;7.998;2024-03-23T13:07:34;8.20;93.00
1453;DHT22;720;47.738;7.998;2024-03-23T13:10:01;8.20;92.80
1453;DHT22;720;47.738;7.998;2024-03-23T13:12:27;8.20;93.90
1453;DHT22;720;47.738;7.998;2024-03-23T13:14:53;8.20;93.00
1453;DHT22;720;47.738;7.998;2024-03-23T13:17:18;8.10;92.60
1453;DHT22;720;47.738;7.998;2024-03-23T13:19:44;8.10;93.30
1453;DHT22;720;47.738;7.998;2024-03-23T13:22:10;8.30;92.80
1453;DHT22;720;47.738;7.998;2024-03-23T13:24:37;8.40;93.60
1453;DHT22;720;47.738;7.998;2024-03-23T13:27:03;8.30;94.10
1453;DHT22;720;47.738;7.998;2024-03-23T13:29:31;8.30;93.00
1453;DHT22;720;47.738;7.998;2024-03-23T13:31:57;8.40;92.60
1453;DHT22;720;47.738;7.998;2024-03-23T13:34:23;8.40;91.90
1453;DHT22;720;47.738;7.998;2024-03-23T13:36:48;8.50;91.80
1453;DHT22;720;47.738;7.998;2024-03-23T13:39:14;8.50;92.50
1453;DHT22;720;47.738;7.998;2024-03-23T13:41:42;8.60;93.40
1453;DHT22;720;47.738;7.998;2024-03-23T13:44:09;8.60;92.10
1453;DHT22;720;47.738;7.998;2024-03-23T13:46:41;8.40;91.50
1453;DHT22;720;47.738;7.998;2024-03-23T13:49:27;8.00;92.60
1453;DHT22;720;47.738;7.998;2024-03-23T13:51:54;7.80;93.00
1453;DHT22;720;47.738;7.998;2024-03-23T13:54:20;7.70;93.30
1453;DHT22;720;47.738;7.998;2024-03-23T13:56:48;7.70;92.90
1453;DHT22;720;47.738;7.998;2024-03-23T13:59:14;7.80;92.80
1453;DHT22;720;47.738;7.998;2024-03-23T14:01:39;7.80;92.60
1453;DHT22;720;47.738;7.998;2024-03-23T14:04:05;7.90;94.60
1453;DHT22;720;47.738;7.998;2024-03-23T14:06:31;8.10;94.40
1453;DHT22;720;47.738;7.998;2024-03-23T14:08:57;8.30;94.20
1453;DHT22;720;47.738;7.998;2024-03-23T14:11:23;8.50;93.40
1453;DHT22;720;47.738;7.998;2024-03-23T14:13:48;8.50;92.50
1453;DHT22;720;47.738;7.998;2024-03-23T14:16:14;8.50;93.70
1453;DHT22;720;47.738;7.998;2024-03-23T14:18:39;8.60;92.70
1453;DHT22;720;47.738;7.998;2024-03-23T14:21:05;8.80;91.70
1453;DHT22;720;47.738;7.998;2024-03-23T14:23:32;8.80;92.10
1453;DHT22;720;47.738;7.998;2024-03-23T14:26:00;8.80;93.20
1453;DHT22;720;47.738;7.998;2024-03-23T14:28:26;8.80;92.00
1453;DHT22;720;47.738;7.998;2024-03-23T14:30:54;8.60;89.40
1453;DHT22;720;47.738;7.998;2024-03-23T14:33:20;8.40;90.00
1453;DHT22;720;47.738;7.998;2024-03-23T14:35:56;8.10;90.20
1453;DHT22;720;47.738;7.998;2024-03-23T14:38:25;7.80;90.40
1453;DHT22;720;47.738;7.998;2024-03-23T14:40:51;7.60;90.20
1453;DHT22;720;47.738;7.998;2024-03-23T14:43:19;7.60;90.60
1453;DHT22;720;47.738;7.998;2024-03-23T14:48:39;7.70;89.00
1453;DHT22;720;47.738;7.998;2024-03-23T14:51:05;7.60;90.50
1453;DHT22;720;47.738;7.998;2024-03-23T14:53:36;7.50;91.80
1453;DHT22;720;47.738;7.998;2024-03-23T14:56:03;7.60;90.80
1453;DHT22;720;47.738;7.998;2024-03-23T14:58:29;7.80;90.30
1453;DHT22;720;47.738;7.998;2024-03-23T15:01:06;8.00;90.70
1453;DHT22;720;47.738;7.998;2024-03-23T15:03:39;8.10;92.70
1453;DHT22;720;47.738;7.998;2024-03-23T15:06:05;8.00;94.50
1453;DHT22;720;47.738;7.998;2024-03-23T15:08:31;7.90;95.60
1453;DHT22;720;47.738;7.998;2024-03-23T15:11:00;7.80;95.90
1453;DHT22;720;47.738;7.998;2024-03-23T15:13:33;7.60;94.60
1453;DHT22;720;47.738;7.998;2024-03-23T15:15:59;7.50;94.40
1453;DHT22;720;47.738;7.998;2024-03-23T15:18:25;7.40;93.00
1453;DHT22;720;47.738;7.998;2024-03-23T15:21:01;7.10;92.70
1453;DHT22;720;47.738;7.998;2024-03-23T15:23:28;6.90;92.60
1453;DHT22;720;47.738;7.998;2024-03-23T15:26:01;6.50;90.80
1453;DHT22;720;47.738;7.998;2024-03-23T15:28:27;6.50;91.60
1453;DHT22;720;47.738;7.998;2024-03-23T15:31:10;6.60;92.80
1453;DHT22;720;47.738;7.998;2024-03-23T15:33:35;6.80;92.30
1453;DHT22;720;47.738;7.998;2024-03-23T15:36:02;6.90;91.30
1453;DHT22;720;47.738;7.998;2024-03-23T15:38:28;7.00;90.80
1453;DHT22;720;47.738;7.998;2024-03-23T15:40:57;7.10;90.20
1453;DHT22;720;47.738;7.998;2024-03-23T15:43:23;7.20;90.80
1453;DHT22;720;47.738;7.998;2024-03-23T15:45:59;7.40;92.20
1453;DHT22;720;47.738;7.998;2024-03-23T15:48:25;7.30;90.70
1453;DHT22;720;47.738;7.998;2024-03-23T15:50:55;7.30;92.90
1453;DHT22;720;47.738;7.998;2024-03-23T15:53:21;7.30;92.00
1453;DHT22;720;47.738;7.998;2024-03-23T15:55:59;7.40;91.40
1453;DHT22;720;47.738;7.998;2024-03-23T15:58:25;7.30;91.30
1453;DHT22;720;47.738;7.998;2024-03-23T16:01:07;7.00;92.30
1453;DHT22;720;47.738;7.998;2024-03-23T16:03:36;6.90;92.30
1453;DHT22;720;47.738;7.998;2024-03-23T16:06:04;6.90;91.70
1453;DHT22;720;47.738;7.998;2024-03-23T16:08:30;7.00;92.70
1453;DHT22;720;47.738;7.998;2024-03-23T16:11:00;7.00;94.00
1453;DHT22;720;47.738;7.998;2024-03-23T16:13:26;6.90;91.20
1453;DHT22;720;47.738;7.998;2024-03-23T16:15:57;6.90;90.70
1453;DHT22;720;47.738;7.998;2024-03-23T16:18:24;6.90;91.00
1453;DHT22;720;47.738;7.998;2024-03-23T16:23:19;6.90;92.90
1453;DHT22;720;47.738;7.998;2024-03-23T16:25:52;7.00;93.30
1453;DHT22;720;47.738;7.998;2024-03-23T16:28:42;7.10;92.10
1453;DHT22;720;47.738;7.998;2024-03-23T16:31:09;7.20;91.70
1453;DHT22;720;47.738;7.998;2024-03-23T16:33:36;7.20;94.50
1453;DHT22;720;47.738;7.998;2024-03-23T16:38:35;8.60;97.20
1453;DHT22;720;47.738;7.998;2024-03-23T16:41:06;9.10;93.30
1453;DHT22;720;47.738;7.998;2024-03-23T16:43:33;9.10;91.10
1453;DHT22;720;47.738;7.998;2024-03-23T16:48:27;8.50;91.50
1453;DHT22;720;47.738;7.998;2024-03-23T16:50:53;8.30;92.30
1453;DHT22;720;47.738;7.998;2024-03-23T16:53:21;8.00;92.40
1453;DHT22;720;47.738;7.998;2024-03-23T16:55:47;7.70;94.80
1453;DHT22;720;47.738;7.998;2024-03-23T16:58:19;7.10;93.70
1453;DHT22;720;47.738;7.998;2024-03-23T17:00:44;6.80;93.40
1453;DHT22;720;47.738;7.998;2024-03-23T17:03:11;6.80;94.80
1453;DHT22;720;47.738;7.998;2024-03-23T17:05:37;6.70;93.80
1453;DHT22;720;47.738;7.998;2024-03-23T17:08:04;6.30;95.80
1453;DHT22;720;47.738;7.998;2024-03-23T17:10:29;6.30;95.70
1453;DHT22;720;47.738;7.998;2024-03-23T17:12:55;6.20;95.60
1453;DHT22;720;47.738;7.998;2024-03-23T17:15:21;6.00;99.40
1453;DHT22;720;47.738;7.998;2024-03-23T17:17:48;6.00;95.50
1453;DHT22;720;47.738;7.998;2024-03-23T17:20:14;6.00;95.40
1453;DHT22;720;47.738;7.998;2024-03-23T17:22:39;5.90;95.30
1453;DHT22;720;47.738;7.998;2024-03-23T17:25:06;5.70;95.50
1453;DHT22;720;47.738;7.998;2024-03-23T17:27:32;5.60;95.80
1453;DHT22;720;47.738;7.998;2024-03-23T17:29:57;5.40;96.30
1453;DHT22;720;47.738;7.998;2024-03-23T17:32:23;5.10;96.70
1453;DHT22;720;47.738;7.998;2024-03-23T17:34:49;5.00;97.10
1453;DHT22;720;47.738;7.998;2024-03-23T17:37:15;4.50;97.50
1453;DHT22;720;47.738;7.998;2024-03-23T17:39:42;4.40;97.80